Time;durP1;ratioP1;P1;durP2;ratioP2;P2;SDS_P1;SDS_P2;PMS_P1;PMS_P2;Temp;Humidity;BMP_temperature;BMP_pressure;BME280_temperature;BME280_humidity;BME280_pressure;Samples;Min_cycle;Max_cycle;Signal;HPM_P1;HPM_P2
2022/04/13 00:01:09;;;;;;;4.73;2.13;;;15.00;99.90;;;;;;5039753;28;20548;-83
2022/04/13 00:03:36;;;;;;;4.30;2.20;;;14.80;99.90;;;;;;5040135;28;20452;-84
2022/04/13 00:06:03;;;;;;;4.07;2.17;;;14.80;99.90;;;;;;5039167;28;20989;-83
2022/04/13 00:08:31;;;;;;;4.83;2.20;;;14.70;99.90;;;;;;5048487;28;20530;-82
2022/04/13 00:10:58;;;;;;;4.73;1.93;;;14.70;99.90;;;;;;5052017;28;20465;-83
2022/04/13 00:13:24;;;;;;;4.60;2.13;;;14.60;99.90;;;;;;5039675;28;20488;-84
2022/04/13 00:15:52;;;;;;;5.10;2.77;;;14.50;99.90;;;;;;5039835;28;20514;-83
2022/04/13 00:18:19;;;;;;;6.00;2.33;;;14.50;99.90;;;;;;5039531;28;20459;-83
2022/04/13 00:20:46;;;;;;;4.27;2.10;;;14.50;99.90;;;;;;5040039;28;20498;-83
2022/04/13 00:23:13;;;;;;;3.20;2.10;;;14.50;99.90;;;;;;5038928;28;20452;-83
2022/04/13 00:25:41;;;;;;;5.27;2.50;;;14.50;99.90;;;;;;5039806;28;20451;-83
2022/04/13 00:28:10;;;;;;;3.90;2.40;;;14.40;99.90;;;;;;5039271;28;20460;-84
2022/04/13 00:30:37;;;;;;;9.87;2.87;;;14.40;99.90;;;;;;5039462;28;20497;-83
2022/04/13 00:33:05;;;;;;;4.20;2.30;;;14.40;99.90;;;;;;5039693;28;20451;-83
2022/04/13 00:35:31;;;;;;;4.40;2.07;;;14.30;99.90;;;;;;5038654;28;20460;-84
2022/04/13 00:37:58;;;;;;;3.70;2.13;;;14.30;99.90;;;;;;5039893;28;20456;-83
2022/04/13 00:40:25;;;;;;;3.67;2.00;;;14.30;99.90;;;;;;5038567;28;20539;-82
2022/04/13 00:42:52;;;;;;;3.73;2.33;;;14.30;99.90;;;;;;5039285;28;20520;-83
2022/04/13 00:45:19;;;;;;;3.77;1.93;;;14.30;99.90;;;;;;5039302;28;20591;-81
2022/04/13 00:47:47;;;;;;;4.00;2.10;;;14.20;99.90;;;;;;5039377;28;20457;-83
2022/04/13 00:50:15;;;;;;;5.03;2.20;;;14.20;99.90;;;;;;5038968;28;20477;-84
2022/04/13 00:52:45;;;;;;;4.97;2.43;;;14.20;99.90;;;;;;5038708;28;20550;-83
2022/04/13 00:55:14;;;;;;;5.60;2.50;;;14.10;99.90;;;;;;5032410;28;20455;-83
2022/04/13 00:57:42;;;;;;;4.63;2.43;;;14.10;99.90;;;;;;5038557;28;20474;-82
2022/04/13 01:00:11;;;;;;;4.10;2.10;;;14.00;99.90;;;;;;5038349;28;20505;-83
2022/04/13 01:02:38;;;;;;;3.20;1.93;;;14.00;99.90;;;;;;5038921;28;20449;-83
2022/04/13 01:05:07;;;;;;;3.47;2.10;;;14.00;99.90;;;;;;5037606;28;20452;-83
2022/04/13 01:07:36;;;;;;;4.30;2.13;;;13.90;99.90;;;;;;5038715;28;20449;-83
2022/04/13 01:10:06;;;;;;;5.87;2.43;;;13.90;99.90;;;;;;5036256;28;20480;-83
2022/04/13 01:12:33;;;;;;;4.13;2.20;;;13.90;99.90;;;;;;5038599;28;20481;-83
2022/04/13 01:15:00;;;;;;;5.50;2.10;;;13.80;99.90;;;;;;5038070;28;20440;-82
2022/04/13 01:17:28;;;;;;;4.63;1.97;;;13.80;99.90;;;;;;5038825;28;20494;-82
2022/04/13 01:19:56;;;;;;;3.33;2.00;;;13.80;99.90;;;;;;5039312;28;20491;-83
2022/04/13 01:22:25;;;;;;;3.77;2.20;;;13.70;99.90;;;;;;5039284;28;20846;-83
2022/04/13 01:24:53;;;;;;;3.20;1.97;;;13.70;99.90;;;;;;5037425;28;20555;-82
2022/04/13 01:27:19;;;;;;;2.97;2.13;;;13.70;99.90;;;;;;5037812;28;20476;-82
2022/04/13 01:29:48;;;;;;;3.27;2.30;;;13.70;99.90;;;;;;5038517;28;20469;-82
2022/04/13 01:32:15;;;;;;;3.80;2.27;;;13.60;99.90;;;;;;5038379;28;20958;-81
2022/04/13 01:34:48;;;;;;;3.50;1.73;;;13.60;99.90;;;;;;5037272;28;20543;-82
2022/04/13 01:37:15;;;;;;;4.50;1.90;;;13.60;99.90;;;;;;5041542;28;21123;-82
2022/04/13 01:39:43;;;;;;;3.20;2.17;;;13.60;99.90;;;;;;5042138;28;20563;-83
2022/04/13 01:42:10;;;;;;;4.73;2.37;;;13.60;99.90;;;;;;5042294;28;20507;-83
2022/04/13 01:44:37;;;;;;;4.17;2.23;;;13.60;99.90;;;;;;5041101;28;20452;-83
2022/04/13 01:47:04;;;;;;;5.03;2.00;;;13.60;99.90;;;;;;5042164;28;20450;-83
2022/04/13 01:49:31;;;;;;;4.67;2.23;;;13.60;99.90;;;;;;5042513;28;20450;-82
2022/04/13 01:51:58;;;;;;;3.97;2.30;;;13.70;99.90;;;;;;5043151;28;20457;-83
2022/04/13 01:54:24;;;;;;;4.33;2.03;;;13.60;99.90;;;;;;5041382;28;20477;-83
2022/04/13 01:56:52;;;;;;;2.97;1.90;;;13.70;99.90;;;;;;5041543;28;20454;-82
2022/04/13 01:59:19;;;;;;;3.90;2.20;;;13.70;99.90;;;;;;5040678;28;20453;-82
2022/04/13 02:01:46;;;;;;;4.23;2.40;;;13.70;99.90;;;;;;5042160;28;20489;-83
2022/04/13 02:04:17;;;;;;;3.60;2.27;;;13.70;99.90;;;;;;5040349;28;20535;-82
2022/04/13 02:06:44;;;;;;;5.70;1.90;;;13.60;99.90;;;;;;5041820;28;20468;-82
2022/04/13 02:09:11;;;;;;;3.20;2.07;;;13.60;99.90;;;;;;5042424;28;20904;-83
2022/04/13 02:11:38;;;;;;;3.57;2.13;;;13.60;99.90;;;;;;5042672;28;20485;-83
2022/04/13 02:14:07;;;;;;;3.93;2.40;;;13.60;99.90;;;;;;5042244;28;20448;-83
2022/04/13 02:16:34;;;;;;;3.40;2.10;;;13.60;99.90;;;;;;5043280;28;20459;-83
2022/04/13 02:19:01;;;;;;;3.80;2.10;;;13.50;99.90;;;;;;5046278;28;20464;-83
2022/04/13 02:21:28;;;;;;;4.03;2.17;;;13.50;99.90;;;;;;5058542;28;20479;-80
2022/04/13 02:23:55;;;;;;;5.83;2.00;;;13.40;99.90;;;;;;5042339;28;21169;-84
2022/04/13 02:26:22;;;;;;;3.40;2.10;;;13.30;99.90;;;;;;5041903;28;20459;-82
2022/04/13 02:28:49;;;;;;;4.43;2.23;;;13.20;99.90;;;;;;5041249;28;20487;-82
2022/04/13 02:31:17;;;;;;;3.10;1.90;;;13.10;99.90;;;;;;5042059;28;20481;-83
2022/04/13 02:33:44;;;;;;;5.10;2.47;;;13.00;99.90;;;;;;5041321;28;20457;-83
2022/04/13 02:36:11;;;;;;;3.80;2.33;;;12.90;99.90;;;;;;5042252;28;20465;-83
2022/04/13 02:38:38;;;;;;;3.83;2.40;;;12.90;99.90;;;;;;5040676;28;20459;-82
2022/04/13 02:41:05;;;;;;;3.43;2.13;;;12.80;99.90;;;;;;5048433;28;20479;-81
2022/04/13 02:43:32;;;;;;;5.43;2.53;;;12.80;99.90;;;;;;5040911;28;20451;-82
2022/04/13 02:45:58;;;;;;;3.93;2.33;;;12.70;99.90;;;;;;5040123;28;20466;-82
2022/04/13 02:48:27;;;;;;;3.60;2.30;;;12.70;99.90;;;;;;5040247;28;20447;-82
2022/04/13 02:50:53;;;;;;;7.83;2.17;;;12.60;99.90;;;;;;5040304;28;20497;-83
2022/04/13 02:53:22;;;;;;;4.97;2.27;;;12.50;99.90;;;;;;5040470;28;20526;-82
2022/04/13 02:55:49;;;;;;;3.40;2.20;;;12.50;99.90;;;;;;5040131;28;20552;-83
2022/04/13 02:58:16;;;;;;;3.10;2.30;;;12.50;99.90;;;;;;5041451;28;20459;-83
2022/04/13 03:00:42;;;;;;;7.10;2.30;;;12.40;99.90;;;;;;5042537;28;20480;-83
2022/04/13 03:03:09;;;;;;;3.90;2.60;;;12.40;99.90;;;;;;5040065;28;20531;-83
2022/04/13 03:05:38;;;;;;;4.97;2.43;;;12.30;99.90;;;;;;5039254;28;20532;-83
2022/04/13 03:08:05;;;;;;;3.50;2.20;;;12.20;99.90;;;;;;5040184;28;20948;-83
2022/04/13 03:10:32;;;;;;;5.90;2.13;;;12.20;99.90;;;;;;5040149;28;20489;-83
2022/04/13 03:12:59;;;;;;;5.10;2.50;;;12.10;99.90;;;;;;5040101;28;20444;-82
2022/04/13 03:15:26;;;;;;;4.30;2.30;;;12.10;99.90;;;;;;5038873;28;20465;-82
2022/04/13 03:17:53;;;;;;;6.27;3.07;;;12.10;99.90;;;;;;5039062;28;20466;-83
2022/04/13 03:20:20;;;;;;;3.83;2.20;;;12.10;99.90;;;;;;5040089;28;21022;-83
2022/04/13 03:22:50;;;;;;;3.33;2.43;;;12.00;99.90;;;;;;5040454;28;20439;-83
2022/04/13 03:25:17;;;;;;;3.60;2.23;;;12.00;99.90;;;;;;5038999;28;20485;-84
2022/04/13 03:27:43;;;;;;;4.47;2.30;;;12.00;99.90;;;;;;5039518;28;20455;-84
2022/04/13 03:30:13;;;;;;;4.40;2.10;;;11.90;99.90;;;;;;5038718;28;20488;-84
2022/04/13 03:32:40;;;;;;;4.40;2.17;;;11.90;99.90;;;;;;5039326;28;20479;-82
2022/04/13 03:35:09;;;;;;;3.50;2.07;;;11.90;99.90;;;;;;5038595;28;20549;-84
2022/04/13 03:37:37;;;;;;;5.10;2.63;;;11.80;99.90;;;;;;5039631;28;20579;-83
2022/04/13 03:40:07;;;;;;;4.50;2.50;;;11.80;99.90;;;;;;5038405;28;20556;-84
2022/04/13 03:42:35;;;;;;;4.40;2.47;;;11.80;99.90;;;;;;5039474;28;20452;-83
2022/04/13 03:45:03;;;;;;;7.60;2.97;;;11.80;99.90;;;;;;5038006;28;20490;-83
2022/04/13 03:47:30;;;;;;;5.97;2.13;;;11.80;99.90;;;;;;5039453;28;20461;-84
2022/04/13 03:49:57;;;;;;;8.83;2.73;;;11.70;99.90;;;;;;5038922;28;21105;-83
2022/04/13 03:52:24;;;;;;;5.47;2.77;;;11.70;99.90;;;;;;5039279;28;21004;-84
2022/04/13 03:54:51;;;;;;;4.60;2.77;;;11.70;99.90;;;;;;5037898;28;20951;-83
2022/04/13 03:57:19;;;;;;;4.40;2.37;;;11.70;99.90;;;;;;5038031;28;20459;-82
2022/04/13 03:59:46;;;;;;;3.97;2.40;;;11.70;99.90;;;;;;5038361;28;20481;-82
2022/04/13 04:02:14;;;;;;;4.67;2.43;;;11.60;99.90;;;;;;5039852;28;20487;-83
2022/04/13 04:04:41;;;;;;;4.53;2.47;;;11.60;99.90;;;;;;5039443;28;20461;-82
2022/04/13 04:07:08;;;;;;;4.00;2.23;;;11.60;99.90;;;;;;5036774;28;20464;-81
2022/04/13 04:09:35;;;;;;;4.87;2.40;;;11.60;99.90;;;;;;5037537;28;20463;-82
2022/04/13 04:12:03;;;;;;;5.07;2.47;;;11.60;99.90;;;;;;5038211;28;20994;-79
2022/04/13 04:14:31;;;;;;;7.53;2.80;;;11.50;99.90;;;;;;5036865;28;20486;-81
2022/04/13 04:16:57;;;;;;;4.93;2.30;;;11.50;99.90;;;;;;5038449;28;20822;-81
2022/04/13 04:19:24;;;;;;;5.60;2.80;;;11.50;99.90;;;;;;5037634;28;20461;-81
2022/04/13 04:21:51;;;;;;;4.03;2.23;;;11.50;99.90;;;;;;5038058;28;20481;-81
2022/04/13 04:24:18;;;;;;;4.50;2.53;;;11.40;99.90;;;;;;5036779;28;20537;-81
2022/04/13 04:26:45;;;;;;;3.63;2.10;;;11.40;99.90;;;;;;5036788;28;20452;-78
2022/04/13 04:29:11;;;;;;;4.67;2.53;;;11.40;99.90;;;;;;5034202;28;20455;-78
2022/04/13 04:31:53;;;;;;;4.93;2.73;;;11.40;99.90;;;;;;5032512;28;20484;-78
2022/04/13 04:34:21;;;;;;;4.93;2.70;;;11.50;99.90;;;;;;5031447;28;20470;-78
2022/04/13 04:36:47;;;;;;;5.03;2.30;;;11.40;99.90;;;;;;5031493;28;20449;-77
2022/04/13 04:39:14;;;;;;;5.57;3.17;;;11.40;99.90;;;;;;5035185;28;20453;-81
2022/04/13 04:41:41;;;;;;;3.30;2.10;;;11.40;99.90;;;;;;5036037;28;20477;-78
2022/04/13 04:44:09;;;;;;;6.33;2.77;;;11.40;99.90;;;;;;5030749;28;20462;-76
2022/04/13 04:46:36;;;;;;;5.80;2.33;;;11.50;99.90;;;;;;5030042;28;20468;-78
2022/04/13 04:49:05;;;;;;;4.20;2.43;;;11.50;99.90;;;;;;5035175;28;20455;-79
2022/04/13 04:51:32;;;;;;;6.73;2.50;;;11.50;99.90;;;;;;5033767;28;20542;-80
2022/04/13 04:53:59;;;;;;;6.27;2.80;;;11.40;99.90;;;;;;5035449;28;20471;-81
2022/04/13 04:56:26;;;;;;;4.33;2.47;;;11.50;99.90;;;;;;5035606;28;20514;-79
2022/04/13 04:58:53;;;;;;;9.23;3.40;;;11.50;99.90;;;;;;5036950;28;20463;-81
2022/04/13 05:01:20;;;;;;;6.33;2.90;;;11.50;99.90;;;;;;5035892;28;20487;-83
2022/04/13 05:03:49;;;;;;;4.23;2.63;;;11.50;99.90;;;;;;5035485;28;20461;-82
2022/04/13 05:06:20;;;;;;;6.33;2.87;;;11.50;99.90;;;;;;5034198;28;20489;-81
2022/04/13 05:08:47;;;;;;;6.30;3.27;;;11.50;99.90;;;;;;5035347;28;20435;-80
2022/04/13 05:11:14;;;;;;;8.23;3.40;;;11.60;99.90;;;;;;5039628;28;20465;-79
2022/04/13 05:13:41;;;;;;;4.47;2.50;;;11.60;99.90;;;;;;5040378;28;20461;-81
2022/04/13 05:16:08;;;;;;;4.10;2.50;;;11.60;99.90;;;;;;5041125;28;20462;-81
2022/04/13 05:18:35;;;;;;;5.90;3.70;;;11.60;99.90;;;;;;5041367;28;20835;-82
2022/04/13 05:21:02;;;;;;;7.60;3.00;;;11.70;99.90;;;;;;5041202;28;20486;-82
2022/04/13 05:23:30;;;;;;;3.87;2.33;;;11.80;99.90;;;;;;5040530;28;20461;-82
2022/04/13 05:25:57;;;;;;;6.10;3.00;;;11.80;99.90;;;;;;5040565;28;20905;-82
2022/04/13 05:28:24;;;;;;;6.93;3.10;;;11.90;99.90;;;;;;5041151;28;20446;-80
2022/04/13 05:30:51;;;;;;;6.53;2.67;;;12.00;99.90;;;;;;5039496;28;20493;-79
2022/04/13 05:33:27;;;;;;;7.20;3.13;;;12.10;99.90;;;;;;5047857;28;20483;-83
2022/04/13 05:35:53;;;;;;;5.90;2.90;;;12.30;99.90;;;;;;5046169;28;20991;-80
2022/04/13 05:38:20;;;;;;;5.53;2.83;;;12.40;99.90;;;;;;5049762;28;20562;-79
2022/04/13 05:40:48;;;;;;;8.90;2.93;;;12.60;99.90;;;;;;5050701;28;20471;-81
2022/04/13 05:43:18;;;;;;;7.00;2.83;;;12.80;99.90;;;;;;5051494;28;20487;-80
2022/04/13 05:45:45;;;;;;;4.33;2.50;;;13.00;99.90;;;;;;5053286;28;20855;-80
2022/04/13 05:48:12;;;;;;;7.13;3.53;;;13.20;99.90;;;;;;5053997;28;20455;-79
2022/04/13 05:50:39;;;;;;;8.10;3.30;;;13.30;99.90;;;;;;5056905;28;20464;-81
2022/04/13 05:53:06;;;;;;;7.53;3.77;;;13.50;99.90;;;;;;5060848;28;20479;-81
2022/04/13 05:55:33;;;;;;;5.27;2.90;;;13.70;99.90;;;;;;5058264;28;20451;-80
2022/04/13 05:58:01;;;;;;;8.47;4.83;;;13.90;99.90;;;;;;5049474;28;20471;-80
2022/04/13 06:00:28;;;;;;;7.23;3.70;;;14.00;99.90;;;;;;5041369;28;20571;-80
2022/04/13 06:02:55;;;;;;;7.20;3.60;;;14.10;99.90;;;;;;5045279;28;20453;-82
2022/04/13 06:05:22;;;;;;;7.97;3.93;;;14.20;99.90;;;;;;5043190;28;20751;-80
2022/04/13 06:07:49;;;;;;;8.60;3.93;;;14.30;99.90;;;;;;5041146;28;20457;-82
2022/04/13 06:10:19;;;;;;;9.70;4.13;;;14.30;99.90;;;;;;5054646;28;20475;-80
2022/04/13 06:12:49;;;;;;;10.90;3.60;;;14.40;99.90;;;;;;5042970;28;20489;-79
2022/04/13 06:15:17;;;;;;;9.43;4.37;;;14.50;99.90;;;;;;5039976;28;20467;-80
2022/04/13 06:17:44;;;;;;;6.30;4.03;;;14.50;99.90;;;;;;5041168;28;20478;-79
2022/04/13 06:20:14;;;;;;;10.30;4.30;;;14.60;99.90;;;;;;5041070;28;20476;-79
2022/04/13 06:22:42;;;;;;;9.80;3.97;;;14.70;99.90;;;;;;5039759;28;20462;-80
2022/04/13 06:25:11;;;;;;;11.37;4.57;;;14.80;99.90;;;;;;5038303;28;20465;-81
2022/04/13 06:27:38;;;;;;;8.70;3.30;;;14.90;99.90;;;;;;5045260;28;20821;-81
2022/04/13 06:30:06;;;;;;;7.23;3.83;;;15.00;99.90;;;;;;5053587;28;20529;-80
2022/04/13 06:32:35;;;;;;;8.60;3.47;;;15.20;99.90;;;;;;5045061;28;20495;-82
2022/04/13 06:35:02;;;;;;;5.53;3.20;;;15.30;99.90;;;;;;5038074;28;20474;-81
2022/04/13 06:37:29;;;;;;;7.43;3.20;;;15.40;99.90;;;;;;5040062;28;20536;-81
2022/04/13 06:39:56;;;;;;;8.03;3.53;;;15.60;99.90;;;;;;5063984;28;20480;-80
2022/04/13 06:42:23;;;;;;;8.37;4.10;;;15.70;99.90;;;;;;5057840;28;20454;-80
2022/04/13 06:44:53;;;;;;;8.90;4.20;;;15.90;99.90;;;;;;5043987;28;20491;-79
2022/04/13 06:47:20;;;;;;;10.50;4.70;;;16.00;99.90;;;;;;5042173;28;20456;-80
2022/04/13 06:49:48;;;;;;;13.70;5.60;;;16.10;99.90;;;;;;5051260;28;20472;-79
2022/04/13 06:52:15;;;;;;;12.53;5.23;;;16.20;99.90;;;;;;5050644;28;20488;-80
2022/04/13 06:54:42;;;;;;;14.53;6.60;;;16.30;99.90;;;;;;5053213;28;20455;-81
2022/04/13 06:57:09;;;;;;;12.07;6.40;;;16.40;99.90;;;;;;5038580;28;20471;-81
2022/04/13 06:59:36;;;;;;;13.77;6.10;;;16.50;99.90;;;;;;5060311;28;20449;-82
2022/04/13 07:02:03;;;;;;;8.53;5.30;;;16.60;99.90;;;;;;5052414;28;20460;-80
2022/04/13 07:04:30;;;;;;;9.60;5.50;;;16.70;99.90;;;;;;5051002;28;20528;-81
2022/04/13 07:06:58;;;;;;;11.07;6.37;;;16.80;99.90;;;;;;5044359;28;20820;-79
2022/04/13 07:09:25;;;;;;;11.70;5.87;;;16.90;99.90;;;;;;5041428;28;20883;-79
2022/04/13 07:11:52;;;;;;;16.57;6.00;;;17.10;99.90;;;;;;5046971;28;20460;-78
2022/04/13 07:14:19;;;;;;;12.13;6.57;;;17.10;99.90;;;;;;5040001;28;20460;-79
2022/04/13 07:16:46;;;;;;;10.40;6.10;;;17.20;99.90;;;;;;5042112;28;20457;-78
2022/04/13 07:19:13;;;;;;;13.90;6.83;;;17.30;99.90;;;;;;5041400;28;20463;-79
2022/04/13 07:21:40;;;;;;;11.23;7.00;;;17.60;99.90;;;;;;5041586;28;20467;-79
2022/04/13 07:24:10;;;;;;;13.43;6.13;;;17.80;99.90;;;;;;5040533;28;20440;-79
2022/04/13 07:26:37;;;;;;;13.20;7.47;;;18.10;99.90;;;;;;5039360;28;20477;-79
2022/04/13 07:29:04;;;;;;;17.53;6.97;;;18.30;99.90;;;;;;5045143;28;20454;-78
2022/04/13 07:31:32;;;;;;;12.53;7.10;;;18.50;99.90;;;;;;5036522;28;20487;-80
2022/04/13 07:33:59;;;;;;;15.60;7.10;;;18.60;99.90;;;;;;5036118;28;20936;-80
2022/04/13 07:36:26;;;;;;;11.00;6.73;;;18.80;99.90;;;;;;5035146;28;20463;-79
2022/04/13 07:38:52;;;;;;;13.40;7.00;;;19.00;99.90;;;;;;5038927;28;20455;-80
2022/04/13 07:41:22;;;;;;;14.07;7.30;;;19.20;99.90;;;;;;5039398;28;20483;-80
2022/04/13 07:43:49;;;;;;;12.40;7.10;;;19.30;99.90;;;;;;5041431;28;20816;-80
2022/04/13 07:46:16;;;;;;;12.20;8.00;;;19.30;99.90;;;;;;5037765;28;20556;-79
2022/04/13 07:48:44;;;;;;;15.13;7.00;;;19.50;99.90;;;;;;5037044;28;20453;-79
2022/04/13 07:51:11;;;;;;;10.57;6.73;;;19.80;99.90;;;;;;5038218;28;20844;-80
2022/04/13 07:53:38;;;;;;;13.90;7.20;;;20.10;99.90;;;;;;5029636;28;20915;-79
2022/04/13 07:56:05;;;;;;;10.87;7.10;;;20.40;99.90;;;;;;5038388;28;20467;-79
2022/04/13 07:58:33;;;;;;;18.53;7.90;;;20.40;99.90;;;;;;5047005;28;20474;-79
2022/04/13 08:01:00;;;;;;;11.13;7.57;;;21.00;99.90;;;;;;5038565;28;20480;-79
2022/04/13 08:03:27;;;;;;;11.53;8.00;;;21.30;99.90;;;;;;5046107;28;20953;-79
2022/04/13 08:05:53;;;;;;;10.90;7.90;;;21.40;99.90;;;;;;5033793;28;20535;-80
2022/04/13 08:08:20;;;;;;;10.67;6.47;;;21.80;99.90;;;;;;5035626;28;20965;-80
2022/04/13 08:10:47;;;;;;;12.30;7.53;;;22.40;99.90;;;;;;5029307;28;20489;-80
2022/04/13 08:13:14;;;;;;;9.13;6.90;;;23.10;99.90;;;;;;5035058;28;20503;-79
2022/04/13 08:15:42;;;;;;;12.40;7.10;;;23.70;99.90;;;;;;5038958;28;20446;-80
2022/04/13 08:18:09;;;;;;;12.13;6.30;;;23.50;99.90;;;;;;5035143;28;20488;-80
2022/04/13 08:20:36;;;;;;;14.33;7.40;;;24.40;99.90;;;;;;5033528;28;20499;-80
2022/04/13 08:23:03;;;;;;;8.30;6.30;;;24.50;99.90;;;;;;5030511;28;20452;-79
2022/04/13 08:25:30;;;;;;;11.10;5.87;;;25.20;99.90;;;;;;5034717;28;20518;-81
2022/04/13 08:27:57;;;;;;;11.33;5.40;;;25.80;99.90;;;;;;5047400;28;20448;-81
2022/04/13 08:30:25;;;;;;;9.37;5.43;;;26.60;99.90;;;;;;5045477;28;20783;-80
2022/04/13 08:32:53;;;;;;;7.73;4.70;;;27.40;99.90;;;;;;5041918;28;20503;-81
2022/04/13 08:35:20;;;;;;;12.17;5.87;;;28.30;99.90;;;;;;5037772;28;20555;-80
2022/04/13 08:37:47;;;;;;;14.77;5.80;;;28.60;99.90;;;;;;5028241;28;20469;-82
2022/04/13 08:40:16;;;;;;;10.17;5.43;;;29.40;99.90;;;;;;5036732;28;20476;-80
2022/04/13 08:42:47;;;;;;;12.83;8.53;;;29.80;99.90;;;;;;5046996;28;20451;-80
2022/04/13 08:45:23;;;;;;;14.17;7.80;;;28.20;98.00;;;;;;5036376;28;20503;-81
2022/04/13 08:47:56;;;;;;;8.30;5.70;;;28.80;99.20;;;;;;5048973;28;20447;-80
2022/04/13 08:50:26;;;;;;;13.13;5.80;;;28.40;97.50;;;;;;5049889;28;20490;-81
2022/04/13 08:52:58;;;;;;;10.60;5.87;;;30.10;95.70;;;;;;5055098;28;20484;-80
2022/04/13 08:55:27;;;;;;;13.17;6.17;;;30.50;94.80;;;;;;5041690;28;20552;-80
2022/04/13 08:57:58;;;;;;;10.40;6.10;;;31.30;92.60;;;;;;5039882;28;20627;-79
2022/04/13 09:00:28;;;;;;;12.33;6.70;;;31.40;90.20;;;;;;5045235;28;20500;-82
2022/04/13 09:03:18;;;;;;;12.77;6.37;;;31.10;89.20;;;;;;5041770;28;20449;-79
2022/04/13 09:05:51;;;;;;;9.23;6.60;;;31.00;93.20;;;;;;5015979;28;21215;-81
2022/04/13 09:08:24;;;;;;;12.57;6.40;;;32.10;86.30;;;;;;5032145;28;20456;-78
2022/04/13 09:10:52;;;;;;;15.33;6.13;;;32.40;82.80;;;;;;5034400;28;20503;-80
2022/04/13 09:13:21;;;;;;;10.37;5.23;;;31.50;84.40;;;;;;5026033;28;20489;-82
2022/04/13 09:15:49;;;;;;;8.67;4.90;;;32.80;84.40;;;;;;5025116;28;20488;-79
2022/04/13 09:18:19;;;;;;;9.20;5.13;;;33.70;81.20;;;;;;5023662;28;20848;-79
2022/04/13 09:20:45;;;;;;;8.10;4.47;;;34.10;79.00;;;;;;5019931;28;20479;-78
2022/04/13 09:23:14;;;;;;;9.03;4.53;;;34.60;75.90;;;;;;5026277;28;20984;-79
2022/04/13 09:25:42;;;;;;;7.87;5.10;;;33.90;74.20;;;;;;5028599;28;20452;-78
2022/04/13 09:28:08;;;;;;;11.47;6.43;;;32.30;71.60;;;;;;5026124;28;20456;-78
2022/04/13 09:30:36;;;;;;;7.33;3.97;;;33.60;74.90;;;;;;5011595;28;20473;-79
2022/04/13 09:33:04;;;;;;;8.57;4.30;;;34.60;73.10;;;;;;5012500;28;20493;-77
2022/04/13 09:35:33;;;;;;;8.53;3.90;;;35.90;67.60;;;;;;5019850;28;20961;-78
2022/04/13 09:38:03;;;;;;;9.30;4.70;;;35.60;65.50;;;;;;5032065;28;20461;-78
2022/04/13 09:40:37;;;;;;;9.57;4.17;;;35.90;62.90;;;;;;5031557;28;20468;-78
2022/04/13 09:43:09;;;;;;;4.83;3.57;;;35.70;61.70;;;;;;5018307;28;20452;-80
2022/04/13 09:45:39;;;;;;;10.57;4.50;;;36.00;58.60;;;;;;5021518;28;20460;-79
2022/04/13 09:48:07;;;;;;;8.63;3.97;;;35.90;59.20;;;;;;5027813;28;20464;-78
2022/04/13 09:50:35;;;;;;;7.90;3.63;;;35.90;61.40;;;;;;5031445;28;20475;-81
2022/04/13 09:53:05;;;;;;;5.90;3.77;;;35.90;58.00;;;;;;5031006;28;20486;-81
2022/04/13 09:55:37;;;;;;;5.03;2.83;;;36.50;58.90;;;;;;5035533;28;20459;-82
2022/04/13 09:58:08;;;;;;;9.77;3.50;;;36.60;57.40;;;;;;5038769;28;20855;-80
2022/04/13 10:00:36;;;;;;;7.10;4.00;;;36.60;55.20;;;;;;5042520;28;20476;-80
2022/04/13 10:03:11;;;;;;;5.33;2.60;;;35.60;58.90;;;;;;5049166;28;20453;-80
2022/04/13 10:05:39;;;;;;;5.57;2.50;;;35.70;56.70;;;;;;5049488;28;20940;-81
2022/04/13 10:08:08;;;;;;;7.40;3.20;;;33.80;55.50;;;;;;5049214;28;20558;-81
2022/04/13 10:10:36;;;;;;;8.83;3.23;;;32.90;57.30;;;;;;5047386;28;20475;-83
2022/04/13 10:13:03;;;;;;;7.43;2.93;;;32.10;58.40;;;;;;5051927;28;21233;-80
2022/04/13 10:15:30;;;;;;;5.50;2.97;;;31.10;58.70;;;;;;5048743;28;20455;-78
2022/04/13 10:18:01;;;;;;;4.67;2.80;;;30.50;59.10;;;;;;5043468;28;20456;-78
2022/04/13 10:20:45;;;;;;;5.20;2.83;;;30.10;59.70;;;;;;5048678;28;20468;-82
2022/04/13 10:23:13;;;;;;;10.33;3.30;;;29.90;61.90;;;;;;5048145;28;20458;-80
2022/04/13 10:25:42;;;;;;;8.50;3.50;;;29.70;64.10;;;;;;5053720;28;20551;-80
2022/04/13 10:28:12;;;;;;;5.27;3.23;;;30.60;65.80;;;;;;5049329;28;20571;-81
2022/04/13 10:30:40;;;;;;;5.70;2.83;;;30.50;62.10;;;;;;5051816;28;20537;-82
2022/04/13 10:33:08;;;;;;;8.00;3.30;;;31.20;61.90;;;;;;5059764;28;20456;-80
2022/04/13 10:35:39;;;;;;;6.20;2.93;;;33.00;62.10;;;;;;5041189;28;20457;-82
2022/04/13 10:38:06;;;;;;;7.53;3.43;;;34.20;59.30;;;;;;5062675;28;20893;-81
2022/04/13 10:40:35;;;;;;;6.57;2.93;;;33.20;59.50;;;;;;5049811;28;20570;-82
2022/04/13 10:43:05;;;;;;;7.80;2.57;;;32.80;60.70;;;;;;5061423;28;20546;-82
2022/04/13 10:45:34;;;;;;;10.60;2.83;;;31.90;59.20;;;;;;5052571;28;20953;-82
2022/04/13 10:48:03;;;;;;;7.60;2.23;;;32.50;60.60;;;;;;5052878;28;20460;-81
2022/04/13 10:50:38;;;;;;;6.50;2.60;;;33.80;58.70;;;;;;5063153;28;20842;-82
2022/04/13 10:53:18;;;;;;;6.30;2.50;;;34.90;60.30;;;;;;5052162;28;20527;-81
2022/04/13 10:55:46;;;;;;;4.77;2.40;;;36.10;59.10;;;;;;5043906;28;20540;-82
2022/04/13 10:58:23;;;;;;;5.37;2.00;;;36.50;58.20;;;;;;5045082;28;20455;-82
2022/04/13 11:00:58;;;;;;;8.40;2.67;;;37.20;57.00;;;;;;5069805;28;20482;-80
2022/04/13 11:03:30;;;;;;;5.40;2.73;;;36.80;54.00;;;;;;5050868;28;20535;-82
2022/04/13 11:05:58;;;;;;;5.50;2.50;;;36.50;56.60;;;;;;5051316;28;20456;-82
2022/04/13 11:08:30;;;;;;;5.30;2.30;;;35.90;53.10;;;;;;5055804;28;20814;-82
2022/04/13 11:10:57;;;;;;;5.57;2.30;;;35.30;56.00;;;;;;5063758;28;20547;-83
2022/04/13 11:13:31;;;;;;;4.40;2.13;;;34.90;54.40;;;;;;5052720;28;20492;-82
2022/04/13 11:16:14;;;;;;;5.80;2.10;;;36.10;54.30;;;;;;5045052;28;20457;-82
2022/04/13 11:18:41;;;;;;;4.87;2.07;;;36.40;55.00;;;;;;5048042;28;20509;-82
2022/04/13 11:21:08;;;;;;;5.50;2.60;;;37.00;54.50;;;;;;5053002;28;20952;-84
2022/04/13 11:23:49;;;;;;;5.03;2.50;;;35.80;54.70;;;;;;5046154;28;20463;-83
2022/04/13 11:26:24;;;;;;;6.03;2.80;;;36.70;52.50;;;;;;5039859;28;20456;-83
2022/04/13 11:29:17;;;;;;;6.63;2.67;;;37.60;52.30;;;;;;5048322;28;20451;-82
2022/04/13 11:32:13;;;;;;;6.20;3.00;;;39.00;52.20;;;;;;5038104;28;20480;-79
2022/04/13 11:34:42;;;;;;;5.63;3.03;;;39.50;54.30;;;;;;5035141;28;20544;-81
2022/04/13 11:37:11;;;;;;;5.60;2.77;;;38.90;52.40;;;;;;5048940;28;20458;-79
2022/04/13 11:39:51;;;;;;;5.90;3.40;;;39.40;52.90;;;;;;5056014;28;20447;-79
2022/04/13 11:42:53;;;;;;;5.10;2.80;;;39.00;51.10;;;;;;5033546;28;20816;-79
2022/04/13 11:45:24;;;;;;;6.77;3.60;;;38.40;50.60;;;;;;5032822;28;20479;-79
2022/04/13 11:47:56;;;;;;;7.13;2.60;;;37.00;50.00;;;;;;5034305;28;20460;-80
2022/04/13 11:50:24;;;;;;;5.33;2.50;;;36.50;50.30;;;;;;5032255;28;20476;-79
2022/04/13 11:52:53;;;;;;;4.50;2.63;;;35.50;51.50;;;;;;5032971;28;20464;-79
2022/04/13 11:55:21;;;;;;;5.80;2.53;;;34.10;52.80;;;;;;5031023;28;20457;-78
2022/04/13 11:58:15;;;;;;;6.30;2.60;;;33.40;52.20;;;;;;5032268;28;20472;-81
2022/04/13 12:00:45;;;;;;;6.87;2.40;;;32.60;52.90;;;;;;5036943;28;20480;-80
2022/04/13 12:03:14;;;;;;;5.43;2.57;;;32.00;55.80;;;;;;5037625;28;20449;-81
2022/04/13 12:05:43;;;;;;;6.13;2.30;;;31.60;56.60;;;;;;5038342;28;20441;-80
2022/04/13 12:08:15;;;;;;;4.93;2.23;;;32.60;53.80;;;;;;5038541;28;20831;-81
2022/04/13 12:10:46;;;;;;;4.97;1.80;;;34.70;55.60;;;;;;5055730;28;20463;-80
2022/04/13 12:13:13;;;;;;;5.23;2.53;;;35.50;53.40;;;;;;5055682;28;20448;-80
2022/04/13 12:15:44;;;;;;;9.07;2.60;;;34.80;52.70;;;;;;5047612;28;20445;-80
2022/04/13 12:18:11;;;;;;;5.47;2.33;;;34.40;51.90;;;;;;5055743;28;20452;-80
2022/04/13 12:20:38;;;;;;;5.77;2.40;;;33.80;53.70;;;;;;5047094;28;20471;-80
2022/04/13 12:23:19;;;;;;;5.87;2.40;;;33.30;53.60;;;;;;5056820;28;20479;-81
2022/04/13 12:25:47;;;;;;;5.80;2.77;;;32.80;55.80;;;;;;5038664;28;20488;-80
2022/04/13 12:28:15;;;;;;;7.23;2.70;;;32.20;54.30;;;;;;5055666;28;20447;-79
2022/04/13 12:30:43;;;;;;;8.77;2.70;;;31.80;55.80;;;;;;5057107;28;20483;-80
2022/04/13 12:33:15;;;;;;;5.60;2.60;;;31.70;55.20;;;;;;5056720;28;20575;-80
2022/04/13 12:35:52;;;;;;;6.33;2.23;;;33.00;55.10;;;;;;5042391;28;20964;-80
2022/04/13 12:38:24;;;;;;;6.83;2.70;;;34.70;55.10;;;;;;5041020;28;20462;-82
2022/04/13 12:41:09;;;;;;;8.60;3.80;;;35.90;54.80;;;;;;5050359;28;20476;-81
2022/04/13 12:43:37;;;;;;;8.87;2.90;;;36.10;52.50;;;;;;5044691;28;20535;-82
2022/04/13 12:46:16;;;;;;;9.03;3.67;;;35.30;52.00;;;;;;5045005;28;20461;-81
2022/04/13 12:48:45;;;;;;;6.00;2.70;;;34.40;53.60;;;;;;5050017;28;20444;-80
2022/04/13 12:51:13;;;;;;;5.07;2.90;;;33.30;53.60;;;;;;5050427;28;20547;-81
2022/04/13 12:53:58;;;;;;;12.13;3.43;;;33.30;54.90;;;;;;5044834;28;20448;-81